sensor_id;sensor_type;location;lat;lon;timestamp;temperature;humidity
9925;DHT22;5001;51.674;7.868;2023-05-09T00:00:48;15.10;1.00
9925;DHT22;5001;51.674;7.868;2023-05-09T00:03:16;15.10;1.00
9925;DHT22;5001;51.674;7.868;2023-05-09T00:05:43;15.10;11.60
9925;DHT22;5001;51.674;7.868;2023-05-09T00:08:10;15.00;1.00
9925;DHT22;5001;51.674;7.868;2023-05-09T00:10:37;15.00;1.00
9925;DHT22;5001;51.674;7.868;2023-05-09T00:13:03;15.00;1.00
9925;DHT22;5001;51.674;7.868;2023-05-09T00:15:30;15.00;1.00
9925;DHT22;5001;51.674;7.868;2023-05-09T00:17:57;15.00;1.00
9925;DHT22;5001;51.674;7.868;2023-05-09T00:20:25;14.90;1.00
9925;DHT22;5001;51.674;7.868;2023-05-09T00:22:52;14.90;2.90
9925;DHT22;5001;51.674;7.868;2023-05-09T00:25:19;14.90;5.70
9925;DHT22;5001;51.674;7.868;2023-05-09T00:27:46;14.80;11.40
9925;DHT22;5001;51.674;7.868;2023-05-09T00:30:13;14.80;16.20
9925;DHT22;5001;51.674;7.868;2023-05-09T00:32:40;14.80;20.80
9925;DHT22;5001;51.674;7.868;2023-05-09T00:35:08;14.70;29.30
9925;DHT22;5001;51.674;7.868;2023-05-09T00:37:36;14.60;35.10
9925;DHT22;5001;51.674;7.868;2023-05-09T00:40:04;14.60;44.10
9925;DHT22;5001;51.674;7.868;2023-05-09T00:42:32;14.60;53.90
9925;DHT22;5001;51.674;7.868;2023-05-09T00:45:00;14.60;55.20
9925;DHT22;5001;51.674;7.868;2023-05-09T00:47:27;14.50;59.50
9925;DHT22;5001;51.674;7.868;2023-05-09T00:49:56;14.50;81.30
9925;DHT22;5001;51.674;7.868;2023-05-09T00:52:24;14.40;77.40
9925;DHT22;5001;51.674;7.868;2023-05-09T00:54:55;14.40;32.80
9925;DHT22;5001;51.674;7.868;2023-05-09T00:57:22;14.40;36.80
9925;DHT22;5001;51.674;7.868;2023-05-09T00:59:49;14.30;39.20
9925;DHT22;5001;51.674;7.868;2023-05-09T01:02:17;14.30;37.50
9925;DHT22;5001;51.674;7.868;2023-05-09T01:04:45;14.20;36.70
9925;DHT22;5001;51.674;7.868;2023-05-09T01:07:29;14.10;34.10
9925;DHT22;5001;51.674;7.868;2023-05-09T01:16:01;14.00;46.60
9925;DHT22;5001;51.674;7.868;2023-05-09T01:21:08;14.00;63.20
9925;DHT22;5001;51.674;7.868;2023-05-09T01:29:19;13.80;99.90
9925;DHT22;5001;51.674;7.868;2023-05-09T01:31:54;13.70;99.60
9925;DHT22;5001;51.674;7.868;2023-05-09T01:34:26;13.70;99.90
9925;DHT22;5001;51.674;7.868;2023-05-09T01:36:57;13.70;99.90
9925;DHT22;5001;51.674;7.868;2023-05-09T01:39:26;13.70;93.30
9925;DHT22;5001;51.674;7.868;2023-05-09T01:41:55;13.60;97.80
9925;DHT22;5001;51.674;7.868;2023-05-09T01:44:24;13.60;94.50
9925;DHT22;5001;51.674;7.868;2023-05-09T01:46:56;13.50;98.80
9925;DHT22;5001;51.674;7.868;2023-05-09T01:49:25;13.50;90.00
9925;DHT22;5001;51.674;7.868;2023-05-09T01:51:55;13.50;63.40
9925;DHT22;5001;51.674;7.868;2023-05-09T01:54:23;13.50;55.30
9925;DHT22;5001;51.674;7.868;2023-05-09T01:56:53;13.50;39.20
9925;DHT22;5001;51.674;7.868;2023-05-09T01:59:22;13.50;26.20
9925;DHT22;5001;51.674;7.868;2023-05-09T02:01:49;13.40;23.00
9925;DHT22;5001;51.674;7.868;2023-05-09T02:04:18;13.50;17.80
9925;DHT22;5001;51.674;7.868;2023-05-09T02:06:47;13.40;1.00
9925;DHT22;5001;51.674;7.868;2023-05-09T02:09:17;13.50;1.00
9925;DHT22;5001;51.674;7.868;2023-05-09T02:11:46;13.50;1.00
9925;DHT22;5001;51.674;7.868;2023-05-09T02:14:13;13.40;1.00
9925;DHT22;5001;51.674;7.868;2023-05-09T02:16:41;13.40;1.00
9925;DHT22;5001;51.674;7.868;2023-05-09T02:19:08;13.40;1.00
9925;DHT22;5001;51.674;7.868;2023-05-09T02:21:35;13.40;1.00
9925;DHT22;5001;51.674;7.868;2023-05-09T02:24:02;13.30;1.00
9925;DHT22;5001;51.674;7.868;2023-05-09T02:26:30;13.30;1.00
9925;DHT22;5001;51.674;7.868;2023-05-09T02:28:57;13.30;1.00
9925;DHT22;5001;51.674;7.868;2023-05-09T02:31:26;13.20;1.00
9925;DHT22;5001;51.674;7.868;2023-05-09T02:33:54;13.20;1.00
9925;DHT22;5001;51.674;7.868;2023-05-09T02:36:22;13.20;1.00
9925;DHT22;5001;51.674;7.868;2023-05-09T02:38:49;13.10;1.00
9925;DHT22;5001;51.674;7.868;2023-05-09T02:41:17;13.10;1.00
9925;DHT22;5001;51.674;7.868;2023-05-09T02:43:44;13.10;1.00
9925;DHT22;5001;51.674;7.868;2023-05-09T02:46:11;13.10;3.30
9925;DHT22;5001;51.674;7.868;2023-05-09T02:48:38;13.10;14.00
9925;DHT22;5001;51.674;7.868;2023-05-09T02:51:05;13.00;1.00
9925;DHT22;5001;51.674;7.868;2023-05-09T02:53:32;13.00;1.00
9925;DHT22;5001;51.674;7.868;2023-05-09T02:55:59;12.90;1.00
9925;DHT22;5001;51.674;7.868;2023-05-09T02:58:26;12.90;1.00
9925;DHT22;5001;51.674;7.868;2023-05-09T03:00:53;12.90;1.00
9925;DHT22;5001;51.674;7.868;2023-05-09T03:03:20;12.90;1.00
9925;DHT22;5001;51.674;7.868;2023-05-09T03:05:49;12.90;1.00
9925;DHT22;5001;51.674;7.868;2023-05-09T03:08:16;12.90;1.00
9925;DHT22;5001;51.674;7.868;2023-05-09T03:10:43;12.90;1.00
9925;DHT22;5001;51.674;7.868;2023-05-09T03:13:11;12.90;1.00
9925;DHT22;5001;51.674;7.868;2023-05-09T03:15:38;12.80;1.00
9925;DHT22;5001;51.674;7.868;2023-05-09T03:18:06;12.70;1.00
9925;DHT22;5001;51.674;7.868;2023-05-09T03:20:33;12.70;1.00
9925;DHT22;5001;51.674;7.868;2023-05-09T03:23:00;12.70;1.00
9925;DHT22;5001;51.674;7.868;2023-05-09T03:25:28;12.60;1.00
9925;DHT22;5001;51.674;7.868;2023-05-09T03:27:55;12.70;1.00
9925;DHT22;5001;51.674;7.868;2023-05-09T03:30:22;12.60;1.00
9925;DHT22;5001;51.674;7.868;2023-05-09T03:32:50;12.60;1.00
9925;DHT22;5001;51.674;7.868;2023-05-09T03:35:17;12.70;1.00
9925;DHT22;5001;51.674;7.868;2023-05-09T03:37:44;12.70;1.00
9925;DHT22;5001;51.674;7.868;2023-05-09T03:40:11;12.70;1.00
9925;DHT22;5001;51.674;7.868;2023-05-09T03:42:45;12.80;1.00
9925;DHT22;5001;51.674;7.868;2023-05-09T03:45:12;12.80;1.00
9925;DHT22;5001;51.674;7.868;2023-05-09T03:47:40;12.80;1.00
9925;DHT22;5001;51.674;7.868;2023-05-09T03:50:07;12.80;1.00
9925;DHT22;5001;51.674;7.868;2023-05-09T03:52:35;12.80;1.00
9925;DHT22;5001;51.674;7.868;2023-05-09T03:55:04;12.80;1.00
9925;DHT22;5001;51.674;7.868;2023-05-09T03:57:34;12.80;1.00
9925;DHT22;5001;51.674;7.868;2023-05-09T04:00:02;12.80;1.00
9925;DHT22;5001;51.674;7.868;2023-05-09T04:02:39;12.90;1.00
9925;DHT22;5001;51.674;7.868;2023-05-09T04:05:11;12.90;1.00
9925;DHT22;5001;51.674;7.868;2023-05-09T04:07:38;12.90;1.00
9925;DHT22;5001;51.674;7.868;2023-05-09T04:10:07;13.10;1.00
9925;DHT22;5001;51.674;7.868;2023-05-09T04:12:35;13.10;1.00
9925;DHT22;5001;51.674;7.868;2023-05-09T04:15:02;13.10;1.00
9925;DHT22;5001;51.674;7.868;2023-05-09T04:17:29;13.20;1.00
9925;DHT22;5001;51.674;7.868;2023-05-09T04:19:56;13.20;1.00
9925;DHT22;5001;51.674;7.868;2023-05-09T04:22:24;13.40;1.00
9925;DHT22;5001;51.674;7.868;2023-05-09T04:24:50;13.50;1.00
9925;DHT22;5001;51.674;7.868;2023-05-09T04:27:18;13.70;1.00
9925;DHT22;5001;51.674;7.868;2023-05-09T04:29:45;14.00;1.00
9925;DHT22;5001;51.674;7.868;2023-05-09T04:32:13;14.40;1.00
9925;DHT22;5001;51.674;7.868;2023-05-09T04:34:41;14.80;1.00
9925;DHT22;5001;51.674;7.868;2023-05-09T04:37:15;15.10;1.00
9925;DHT22;5001;51.674;7.868;2023-05-09T04:39:42;15.00;1.00
9925;DHT22;5001;51.674;7.868;2023-05-09T04:42:18;15.00;1.00
9925;DHT22;5001;51.674;7.868;2023-05-09T04:44:45;14.90;1.00
9925;DHT22;5001;51.674;7.868;2023-05-09T04:47:13;14.80;1.00
9925;DHT22;5001;51.674;7.868;2023-05-09T04:49:43;14.80;1.00
9925;DHT22;5001;51.674;7.868;2023-05-09T04:52:10;14.70;1.00
9925;DHT22;5001;51.674;7.868;2023-05-09T04:54:37;14.70;1.00
9925;DHT22;5001;51.674;7.868;2023-05-09T04:57:05;14.80;1.00
9925;DHT22;5001;51.674;7.868;2023-05-09T04:59:46;15.20;1.00
9925;DHT22;5001;51.674;7.868;2023-05-09T05:02:14;15.80;1.00
9925;DHT22;5001;51.674;7.868;2023-05-09T05:04:42;16.10;1.00
9925;DHT22;5001;51.674;7.868;2023-05-09T05:07:09;16.10;1.00
9925;DHT22;5001;51.674;7.868;2023-05-09T05:09:37;16.10;1.00
9925;DHT22;5001;51.674;7.868;2023-05-09T05:12:04;15.80;1.00
9925;DHT22;5001;51.674;7.868;2023-05-09T05:14:36;15.80;1.00
9925;DHT22;5001;51.674;7.868;2023-05-09T05:17:05;15.70;1.00
9925;DHT22;5001;51.674;7.868;2023-05-09T05:19:32;15.80;1.00
9925;DHT22;5001;51.674;7.868;2023-05-09T05:22:01;16.10;1.00
9925;DHT22;5001;51.674;7.868;2023-05-09T05:24:30;16.40;1.00
9925;DHT22;5001;51.674;7.868;2023-05-09T05:26:57;16.60;1.00
9925;DHT22;5001;51.674;7.868;2023-05-09T05:29:24;16.80;1.00
9925;DHT22;5001;51.674;7.868;2023-05-09T05:31:51;16.90;1.00
9925;DHT22;5001;51.674;7.868;2023-05-09T05:34:19;17.10;1.00
9925;DHT22;5001;51.674;7.868;2023-05-09T05:36:47;17.20;1.00
9925;DHT22;5001;51.674;7.868;2023-05-09T05:39:14;17.20;1.00
9925;DHT22;5001;51.674;7.868;2023-05-09T05:41:41;17.40;1.00
9925;DHT22;5001;51.674;7.868;2023-05-09T05:44:09;17.50;1.00
9925;DHT22;5001;51.674;7.868;2023-05-09T05:46:37;17.80;1.00
9925;DHT22;5001;51.674;7.868;2023-05-09T05:49:04;18.10;1.00
9925;DHT22;5001;51.674;7.868;2023-05-09T05:51:32;19.00;1.00
9925;DHT22;5001;51.674;7.868;2023-05-09T05:54:01;20.60;1.00
9925;DHT22;5001;51.674;7.868;2023-05-09T05:56:28;21.10;1.00
9925;DHT22;5001;51.674;7.868;2023-05-09T05:58:56;20.80;1.00
9925;DHT22;5001;51.674;7.868;2023-05-09T06:01:23;20.10;1.00
9925;DHT22;5001;51.674;7.868;2023-05-09T06:03:50;20.10;1.00
9925;DHT22;5001;51.674;7.868;2023-05-09T06:06:23;19.10;1.00
9925;DHT22;5001;51.674;7.868;2023-05-09T06:08:53;18.20;1.00
9925;DHT22;5001;51.674;7.868;2023-05-09T06:11:21;17.70;1.00
9925;DHT22;5001;51.674;7.868;2023-05-09T06:13:48;17.60;1.00
9925;DHT22;5001;51.674;7.868;2023-05-09T06:16:16;17.40;1.00
9925;DHT22;5001;51.674;7.868;2023-05-09T06:18:49;17.40;1.00
9925;DHT22;5001;51.674;7.868;2023-05-09T06:21:19;17.40;1.00
9925;DHT22;5001;51.674;7.868;2023-05-09T06:23:46;17.70;1.00
9925;DHT22;5001;51.674;7.868;2023-05-09T06:26:32;17.30;1.00
9925;DHT22;5001;51.674;7.868;2023-05-09T06:28:59;17.50;1.00
9925;DHT22;5001;51.674;7.868;2023-05-09T06:31:26;17.50;1.00
9925;DHT22;5001;51.674;7.868;2023-05-09T06:33:53;17.50;1.00
9925;DHT22;5001;51.674;7.868;2023-05-09T06:36:20;17.50;1.00
9925;DHT22;5001;51.674;7.868;2023-05-09T06:38:47;17.50;1.00
9925;DHT22;5001;51.674;7.868;2023-05-09T06:41:14;17.70;1.00
9925;DHT22;5001;51.674;7.868;2023-05-09T06:43:41;18.00;1.00
9925;DHT22;5001;51.674;7.868;2023-05-09T06:46:08;18.00;1.00
9925;DHT22;5001;51.674;7.868;2023-05-09T06:48:35;18.30;1.00
9925;DHT22;5001;51.674;7.868;2023-05-09T06:51:02;18.70;1.00
9925;DHT22;5001;51.674;7.868;2023-05-09T06:53:29;18.80;1.00
9925;DHT22;5001;51.674;7.868;2023-05-09T06:55:56;18.60;1.00
9925;DHT22;5001;51.674;7.868;2023-05-09T06:58:23;18.20;1.00
9925;DHT22;5001;51.674;7.868;2023-05-09T07:00:50;18.00;1.00
9925;DHT22;5001;51.674;7.868;2023-05-09T07:03:17;18.00;1.00
9925;DHT22;5001;51.674;7.868;2023-05-09T07:05:44;18.20;1.00
9925;DHT22;5001;51.674;7.868;2023-05-09T07:08:11;18.20;1.00
9925;DHT22;5001;51.674;7.868;2023-05-09T07:10:38;18.20;1.00
9925;DHT22;5001;51.674;7.868;2023-05-09T07:13:06;18.10;1.00
9925;DHT22;5001;51.674;7.868;2023-05-09T07:15:33;18.10;1.00
9925;DHT22;5001;51.674;7.868;2023-05-09T07:18:08;18.70;1.00
9925;DHT22;5001;51.674;7.868;2023-05-09T07:20:35;18.90;1.00
9925;DHT22;5001;51.674;7.868;2023-05-09T07:23:03;19.00;1.00
9925;DHT22;5001;51.674;7.868;2023-05-09T07:25:30;18.80;1.00
9925;DHT22;5001;51.674;7.868;2023-05-09T07:27:57;18.30;1.00
9925;DHT22;5001;51.674;7.868;2023-05-09T07:30:24;18.10;1.00
9925;DHT22;5001;51.674;7.868;2023-05-09T07:32:51;17.90;1.00
9925;DHT22;5001;51.674;7.868;2023-05-09T07:35:19;18.00;1.00
9925;DHT22;5001;51.674;7.868;2023-05-09T07:37:46;18.10;1.00
9925;DHT22;5001;51.674;7.868;2023-05-09T07:40:14;18.30;1.00
9925;DHT22;5001;51.674;7.868;2023-05-09T07:42:41;18.30;1.00
9925;DHT22;5001;51.674;7.868;2023-05-09T07:45:15;18.30;1.00
9925;DHT22;5001;51.674;7.868;2023-05-09T07:47:43;18.30;1.00
9925;DHT22;5001;51.674;7.868;2023-05-09T07:50:10;18.30;1.00
9925;DHT22;5001;51.674;7.868;2023-05-09T07:52:37;18.10;1.00
9925;DHT22;5001;51.674;7.868;2023-05-09T07:55:04;18.00;1.00
9925;DHT22;5001;51.674;7.868;2023-05-09T07:57:32;18.00;1.00
9925;DHT22;5001;51.674;7.868;2023-05-09T07:59:59;18.30;1.00
9925;DHT22;5001;51.674;7.868;2023-05-09T08:02:26;18.60;1.00
9925;DHT22;5001;51.674;7.868;2023-05-09T08:04:53;18.70;1.00
9925;DHT22;5001;51.674;7.868;2023-05-09T08:07:20;18.80;1.00
9925;DHT22;5001;51.674;7.868;2023-05-09T08:09:47;19.30;1.00
9925;DHT22;5001;51.674;7.868;2023-05-09T08:12:14;19.10;1.00
9925;DHT22;5001;51.674;7.868;2023-05-09T08:14:41;18.70;1.00
9925;DHT22;5001;51.674;7.868;2023-05-09T08:17:08;18.80;1.00
9925;DHT22;5001;51.674;7.868;2023-05-09T08:19:35;18.70;1.00
9925;DHT22;5001;51.674;7.868;2023-05-09T08:22:02;18.80;1.00
9925;DHT22;5001;51.674;7.868;2023-05-09T08:24:29;18.80;1.00
9925;DHT22;5001;51.674;7.868;2023-05-09T08:26:57;19.00;1.00
9925;DHT22;5001;51.674;7.868;2023-05-09T08:29:24;19.50;1.00
9925;DHT22;5001;51.674;7.868;2023-05-09T08:31:51;19.30;1.00
9925;DHT22;5001;51.674;7.868;2023-05-09T08:34:19;19.20;1.00
9925;DHT22;5001;51.674;7.868;2023-05-09T08:36:46;19.00;1.00
9925;DHT22;5001;51.674;7.868;2023-05-09T08:39:14;19.20;1.00
9925;DHT22;5001;51.674;7.868;2023-05-09T08:41:41;19.40;1.00
9925;DHT22;5001;51.674;7.868;2023-05-09T08:44:08;19.30;1.00
9925;DHT22;5001;51.674;7.868;2023-05-09T08:46:37;19.50;1.00
9925;DHT22;5001;51.674;7.868;2023-05-09T08:49:05;19.60;1.00
9925;DHT22;5001;51.674;7.868;2023-05-09T08:51:34;19.80;1.00
9925;DHT22;5001;51.674;7.868;2023-05-09T08:54:03;19.60;1.00
9925;DHT22;5001;51.674;7.868;2023-05-09T08:56:31;19.60;1.00
9925;DHT22;5001;51.674;7.868;2023-05-09T08:58:58;19.60;1.00
9925;DHT22;5001;51.674;7.868;2023-05-09T09:01:25;19.20;1.00
9925;DHT22;5001;51.674;7.868;2023-05-09T09:03:53;19.20;1.00
9925;DHT22;5001;51.674;7.868;2023-05-09T09:06:21;19.50;1.00
9925;DHT22;5001;51.674;7.868;2023-05-09T09:08:54;19.60;1.00
9925;DHT22;5001;51.674;7.868;2023-05-09T09:11:21;20.10;1.00
9925;DHT22;5001;51.674;7.868;2023-05-09T09:13:51;19.90;1.00
9925;DHT22;5001;51.674;7.868;2023-05-09T09:16:21;20.00;1.00
9925;DHT22;5001;51.674;7.868;2023-05-09T09:18:51;19.90;1.00
9925;DHT22;5001;51.674;7.868;2023-05-09T09:21:19;19.30;1.00
9925;DHT22;5001;51.674;7.868;2023-05-09T09:23:47;19.70;1.00
9925;DHT22;5001;51.674;7.868;2023-05-09T09:26:15;19.90;1.00
9925;DHT22;5001;51.674;7.868;2023-05-09T09:28:42;20.00;1.00
9925;DHT22;5001;51.674;7.868;2023-05-09T09:31:26;20.40;1.00
9925;DHT22;5001;51.674;7.868;2023-05-09T09:34:21;19.90;1.00
9925;DHT22;5001;51.674;7.868;2023-05-09T09:36:49;20.10;1.00
9925;DHT22;5001;51.674;7.868;2023-05-09T09:39:16;19.90;1.00
9925;DHT22;5001;51.674;7.868;2023-05-09T09:41:43;19.70;1.00
9925;DHT22;5001;51.674;7.868;2023-05-09T09:44:15;19.90;1.00
9925;DHT22;5001;51.674;7.868;2023-05-09T09:46:50;19.90;1.00
9925;DHT22;5001;51.674;7.868;2023-05-09T09:49:20;19.70;1.00
9925;DHT22;5001;51.674;7.868;2023-05-09T09:51:52;19.60;1.00
9925;DHT22;5001;51.674;7.868;2023-05-09T09:54:19;19.60;1.00
9925;DHT22;5001;51.674;7.868;2023-05-09T09:56:50;19.60;1.00
9925;DHT22;5001;51.674;7.868;2023-05-09T09:59:23;19.40;1.00
9925;DHT22;5001;51.674;7.868;2023-05-09T10:02:03;19.60;1.00
9925;DHT22;5001;51.674;7.868;2023-05-09T10:04:35;19.70;1.00
9925;DHT22;5001;51.674;7.868;2023-05-09T10:07:04;19.80;1.00
9925;DHT22;5001;51.674;7.868;2023-05-09T10:09:34;19.80;1.00
9925;DHT22;5001;51.674;7.868;2023-05-09T10:12:03;19.60;1.00
9925;DHT22;5001;51.674;7.868;2023-05-09T10:14:32;19.90;1.00
9925;DHT22;5001;51.674;7.868;2023-05-09T10:17:02;20.20;1.00
9925;DHT22;5001;51.674;7.868;2023-05-09T10:19:30;20.50;1.00
9925;DHT22;5001;51.674;7.868;2023-05-09T10:22:02;20.30;1.00
9925;DHT22;5001;51.674;7.868;2023-05-09T10:27:35;20.00;1.00
9925;DHT22;5001;51.674;7.868;2023-05-09T10:35:19;19.50;1.00
9925;DHT22;5001;51.674;7.868;2023-05-09T10:37:47;19.40;1.00
9925;DHT22;5001;51.674;7.868;2023-05-09T10:40:15;19.50;1.00
9925;DHT22;5001;51.674;7.868;2023-05-09T10:42:43;19.40;1.00
9925;DHT22;5001;51.674;7.868;2023-05-09T10:45:11;19.60;1.00
9925;DHT22;5001;51.674;7.868;2023-05-09T10:47:43;20.00;1.00
9925;DHT22;5001;51.674;7.868;2023-05-09T10:50:11;20.10;1.00
9925;DHT22;5001;51.674;7.868;2023-05-09T11:00:50;20.40;1.00
9925;DHT22;5001;51.674;7.868;2023-05-09T11:03:17;20.20;1.00
9925;DHT22;5001;51.674;7.868;2023-05-09T11:05:47;20.20;1.00
9925;DHT22;5001;51.674;7.868;2023-05-09T11:08:19;20.30;1.00
9925;DHT22;5001;51.674;7.868;2023-05-09T11:10:46;20.60;1.00
9925;DHT22;5001;51.674;7.868;2023-05-09T11:13:21;20.70;1.00
9925;DHT22;5001;51.674;7.868;2023-05-09T11:18:28;20.60;1.00
9925;DHT22;5001;51.674;7.868;2023-05-09T11:20:56;20.70;1.00
9925;DHT22;5001;51.674;7.868;2023-05-09T11:23:28;20.90;1.00
9925;DHT22;5001;51.674;7.868;2023-05-09T11:26:04;21.20;1.00
9925;DHT22;5001;51.674;7.868;2023-05-09T11:28:37;21.00;1.00
9925;DHT22;5001;51.674;7.868;2023-05-09T11:31:17;21.20;1.00
9925;DHT22;5001;51.674;7.868;2023-05-09T11:33:48;21.30;1.00
9925;DHT22;5001;51.674;7.868;2023-05-09T11:39:07;21.40;1.00
9925;DHT22;5001;51.674;7.868;2023-05-09T11:41:39;21.70;1.00
9925;DHT22;5001;51.674;7.868;2023-05-09T11:44:17;21.90;1.00
9925;DHT22;5001;51.674;7.868;2023-05-09T11:46:46;21.90;1.00
9925;DHT22;5001;51.674;7.868;2023-05-09T11:49:14;21.40;1.00
9925;DHT22;5001;51.674;7.868;2023-05-09T11:51:41;21.30;1.00
9925;DHT22;5001;51.674;7.868;2023-05-09T11:54:09;21.20;1.00
9925;DHT22;5001;51.674;7.868;2023-05-09T11:56:39;20.30;1.00
9925;DHT22;5001;51.674;7.868;2023-05-09T11:59:07;19.80;1.00
9925;DHT22;5001;51.674;7.868;2023-05-09T12:01:36;19.70;1.00
9925;DHT22;5001;51.674;7.868;2023-05-09T12:04:05;19.80;1.00
9925;DHT22;5001;51.674;7.868;2023-05-09T12:06:33;20.00;1.00
9925;DHT22;5001;51.674;7.868;2023-05-09T12:09:00;20.30;1.00
9925;DHT22;5001;51.674;7.868;2023-05-09T12:11:28;20.50;1.00
9925;DHT22;5001;51.674;7.868;2023-05-09T12:13:58;20.20;1.00
9925;DHT22;5001;51.674;7.868;2023-05-09T12:16:25;20.00;1.00
9925;DHT22;5001;51.674;7.868;2023-05-09T12:18:52;20.30;1.00
9925;DHT22;5001;51.674;7.868;2023-05-09T12:21:20;20.30;1.00
9925;DHT22;5001;51.674;7.868;2023-05-09T12:23:48;20.30;1.00
9925;DHT22;5001;51.674;7.868;2023-05-09T12:26:20;20.40;1.00
9925;DHT22;5001;51.674;7.868;2023-05-09T12:28:49;20.70;1.00
9925;DHT22;5001;51.674;7.868;2023-05-09T12:31:16;21.20;1.00
9925;DHT22;5001;51.674;7.868;2023-05-09T12:33:43;21.20;1.00
9925;DHT22;5001;51.674;7.868;2023-05-09T12:36:11;21.00;1.00
9925;DHT22;5001;51.674;7.868;2023-05-09T12:38:39;20.70;1.00
9925;DHT22;5001;51.674;7.868;2023-05-09T12:41:08;20.50;1.00
9925;DHT22;5001;51.674;7.868;2023-05-09T12:43:55;20.40;1.00
9925;DHT22;5001;51.674;7.868;2023-05-09T12:46:22;20.30;1.00
9925;DHT22;5001;51.674;7.868;2023-05-09T12:48:50;20.30;1.00
9925;DHT22;5001;51.674;7.868;2023-05-09T12:51:18;19.90;1.00
9925;DHT22;5001;51.674;7.868;2023-05-09T12:53:47;19.90;1.00
9925;DHT22;5001;51.674;7.868;2023-05-09T12:56:19;18.40;1.00
9925;DHT22;5001;51.674;7.868;2023-05-09T12:58:51;17.70;1.00
9925;DHT22;5001;51.674;7.868;2023-05-09T13:01:19;16.90;1.00
9925;DHT22;5001;51.674;7.868;2023-05-09T13:03:51;17.20;1.00
9925;DHT22;5001;51.674;7.868;2023-05-09T13:06:18;17.30;1.00
9925;DHT22;5001;51.674;7.868;2023-05-09T13:08:59;17.50;1.00
9925;DHT22;5001;51.674;7.868;2023-05-09T13:11:27;17.40;1.00
9925;DHT22;5001;51.674;7.868;2023-05-09T13:13:54;17.50;1.00
9925;DHT22;5001;51.674;7.868;2023-05-09T13:16:21;17.40;1.00
9925;DHT22;5001;51.674;7.868;2023-05-09T13:18:49;17.50;1.00
9925;DHT22;5001;51.674;7.868;2023-05-09T13:21:16;17.70;1.00
9925;DHT22;5001;51.674;7.868;2023-05-09T13:23:43;17.80;1.00
9925;DHT22;5001;51.674;7.868;2023-05-09T13:26:11;18.00;1.00
9925;DHT22;5001;51.674;7.868;2023-05-09T13:28:38;18.10;1.00
9925;DHT22;5001;51.674;7.868;2023-05-09T13:31:05;18.50;1.00
9925;DHT22;5001;51.674;7.868;2023-05-09T13:33:32;18.80;1.00
9925;DHT22;5001;51.674;7.868;2023-05-09T13:36:01;19.00;1.00
9925;DHT22;5001;51.674;7.868;2023-05-09T13:38:29;19.10;1.00
9925;DHT22;5001;51.674;7.868;2023-05-09T13:40:58;19.30;1.00
9925;DHT22;5001;51.674;7.868;2023-05-09T13:43:25;19.40;1.00
9925;DHT22;5001;51.674;7.868;2023-05-09T13:45:53;19.50;1.00
9925;DHT22;5001;51.674;7.868;2023-05-09T13:48:20;19.70;1.00
9925;DHT22;5001;51.674;7.868;2023-05-09T13:50:46;20.00;1.00
9925;DHT22;5001;51.674;7.868;2023-05-09T13:53:13;19.90;1.00
9925;DHT22;5001;51.674;7.868;2023-05-09T13:55:40;19.90;1.00
9925;DHT22;5001;51.674;7.868;2023-05-09T13:58:08;19.60;1.00
9925;DHT22;5001;51.674;7.868;2023-05-09T14:00:35;19.60;1.00
9925;DHT22;5001;51.674;7.868;2023-05-09T14:03:02;19.60;1.00
9925;DHT22;5001;51.674;7.868;2023-05-09T14:05:32;19.60;1.00
9925;DHT22;5001;51.674;7.868;2023-05-09T14:07:59;19.60;1.00
9925;DHT22;5001;51.674;7.868;2023-05-09T14:10:27;19.70;1.00
9925;DHT22;5001;51.674;7.868;2023-05-09T14:12:54;19.90;1.00
9925;DHT22;5001;51.674;7.868;2023-05-09T14:15:22;20.10;1.00
9925;DHT22;5001;51.674;7.868;2023-05-09T14:17:49;20.20;1.00
9925;DHT22;5001;51.674;7.868;2023-05-09T14:20:16;20.30;1.00
9925;DHT22;5001;51.674;7.868;2023-05-09T14:22:44;20.30;1.00
9925;DHT22;5001;51.674;7.868;2023-05-09T14:25:11;20.20;1.00
9925;DHT22;5001;51.674;7.868;2023-05-09T14:27:38;20.30;1.00
9925;DHT22;5001;51.674;7.868;2023-05-09T14:30:05;20.50;1.00
9925;DHT22;5001;51.674;7.868;2023-05-09T14:32:32;20.70;1.00
9925;DHT22;5001;51.674;7.868;2023-05-09T14:34:59;20.70;1.00
9925;DHT22;5001;51.674;7.868;2023-05-09T14:37:26;20.70;1.00
9925;DHT22;5001;51.674;7.868;2023-05-09T14:39:55;20.90;1.00
9925;DHT22;5001;51.674;7.868;2023-05-09T14:42:22;20.70;1.00
9925;DHT22;5001;51.674;7.868;2023-05-09T14:44:49;20.60;1.00
9925;DHT22;5001;51.674;7.868;2023-05-09T14:47:16;20.40;1.00
9925;DHT22;5001;51.674;7.868;2023-05-09T14:49:43;20.10;1.00
9925;DHT22;5001;51.674;7.868;2023-05-09T14:52:10;20.00;1.00
9925;DHT22;5001;51.674;7.868;2023-05-09T14:54:37;19.80;1.00
9925;DHT22;5001;51.674;7.868;2023-05-09T14:57:04;19.60;1.00
9925;DHT22;5001;51.674;7.868;2023-05-09T14:59:33;19.50;1.00
9925;DHT22;5001;51.674;7.868;2023-05-09T15:02:05;19.40;1.00
9925;DHT22;5001;51.674;7.868;2023-05-09T15:04:32;19.30;1.00
9925;DHT22;5001;51.674;7.868;2023-05-09T15:06:59;19.10;1.00
9925;DHT22;5001;51.674;7.868;2023-05-09T15:09:26;18.70;1.00
9925;DHT22;5001;51.674;7.868;2023-05-09T15:11:53;17.70;1.00
9925;DHT22;5001;51.674;7.868;2023-05-09T15:14:21;16.60;7.50
9925;DHT22;5001;51.674;7.868;2023-05-09T15:16:47;16.40;97.50
9925;DHT22;5001;51.674;7.868;2023-05-09T15:19:17;16.40;93.10
9925;DHT22;5001;51.674;7.868;2023-05-09T15:21:44;16.30;1.00
9925;DHT22;5001;51.674;7.868;2023-05-09T15:24:11;16.30;1.00
9925;DHT22;5001;51.674;7.868;2023-05-09T15:26:38;16.40;1.00
9925;DHT22;5001;51.674;7.868;2023-05-09T15:29:05;16.40;1.00
9925;DHT22;5001;51.674;7.868;2023-05-09T15:31:37;16.40;1.00
9925;DHT22;5001;51.674;7.868;2023-05-09T15:34:04;16.30;1.00
9925;DHT22;5001;51.674;7.868;2023-05-09T15:36:31;16.20;1.00
9925;DHT22;5001;51.674;7.868;2023-05-09T15:38:59;15.80;1.00
9925;DHT22;5001;51.674;7.868;2023-05-09T15:41:26;15.70;1.00
9925;DHT22;5001;51.674;7.868;2023-05-09T15:43:54;15.70;1.00
9925;DHT22;5001;51.674;7.868;2023-05-09T15:46:21;15.80;1.00
9925;DHT22;5001;51.674;7.868;2023-05-09T15:48:49;15.80;1.00
9925;DHT22;5001;51.674;7.868;2023-05-09T15:51:16;15.90;1.00
9925;DHT22;5001;51.674;7.868;2023-05-09T15:53:42;15.50;1.00
9925;DHT22;5001;51.674;7.868;2023-05-09T15:56:09;15.50;1.00
9925;DHT22;5001;51.674;7.868;2023-05-09T15:58:36;15.40;1.00
9925;DHT22;5001;51.674;7.868;2023-05-09T16:01:04;15.30;51.20
9925;DHT22;5001;51.674;7.868;2023-05-09T16:03:33;15.20;44.50
9925;DHT22;5001;51.674;7.868;2023-05-09T16:06:00;14.90;99.90
9925;DHT22;5001;51.674;7.868;2023-05-09T16:08:29;14.80;99.90
9925;DHT22;5001;51.674;7.868;2023-05-09T16:10:56;14.70;99.90
9925;DHT22;5001;51.674;7.868;2023-05-09T16:13:26;14.70;99.90
9925;DHT22;5001;51.674;7.868;2023-05-09T16:15:54;14.80;99.90
9925;DHT22;5001;51.674;7.868;2023-05-09T16:18:21;15.00;99.90
9925;DHT22;5001;51.674;7.868;2023-05-09T16:20:48;15.10;99.90
9925;DHT22;5001;51.674;7.868;2023-05-09T16:23:15;15.10;99.90
9925;DHT22;5001;51.674;7.868;2023-05-09T16:25:42;15.00;99.90
9925;DHT22;5001;51.674;7.868;2023-05-09T16:28:10;15.40;99.90
9925;DHT22;5001;51.674;7.868;2023-05-09T16:30:37;15.70;99.90
9925;DHT22;5001;51.674;7.868;2023-05-09T16:33:04;15.90;99.90
9925;DHT22;5001;51.674;7.868;2023-05-09T16:35:31;15.90;99.90
9925;DHT22;5001;51.674;7.868;2023-05-09T16:37:58;15.80;99.90
9925;DHT22;5001;51.674;7.868;2023-05-09T16:40:25;15.70;99.90
9925;DHT22;5001;51.674;7.868;2023-05-09T16:42:52;15.80;99.90
9925;DHT22;5001;51.674;7.868;2023-05-09T16:45:19;15.60;99.90
9925;DHT22;5001;51.674;7.868;2023-05-09T16:47:46;15.70;99.90
9925;DHT22;5001;51.674;7.868;2023-05-09T16:50:16;15.60;99.90
9925;DHT22;5001;51.674;7.868;2023-05-09T16:52:43;15.60;99.90
9925;DHT22;5001;51.674;7.868;2023-05-09T16:55:11;15.90;99.90
9925;DHT22;5001;51.674;7.868;2023-05-09T16:57:38;16.00;99.90